sensor_id;sensor_type;location;lat;lon;timestamp;pressure;altitude;pressure_sealevel;temperature;humidity
51528;BME280;37612;51.768;21.590;2023-12-07T00:02:13;100288.33;;;-1.46;100.00
51528;BME280;37612;51.768;21.590;2023-12-07T00:06:14;100286.89;;;-1.45;100.00
51528;BME280;37612;51.768;21.590;2023-12-07T00:10:15;100288.77;;;-1.42;100.00
51528;BME280;37612;51.768;21.590;2023-12-07T00:14:17;100286.52;;;-1.39;100.00
51528;BME280;37612;51.768;21.590;2023-12-07T00:18:18;100284.00;;;-1.41;100.00
51528;BME280;37612;51.768;21.590;2023-12-07T00:22:27;100282.95;;;-1.43;100.00
51528;BME280;37612;51.768;21.590;2023-12-07T00:26:29;100282.25;;;-1.41;100.00
51528;BME280;37612;51.768;21.590;2023-12-07T00:30:33;100285.26;;;-1.39;100.00
51528;BME280;37612;51.768;21.590;2023-12-07T00:34:34;100287.20;;;-1.39;100.00
51528;BME280;37612;51.768;21.590;2023-12-07T00:38:36;100289.43;;;-1.40;100.00
51528;BME280;37612;51.768;21.590;2023-12-07T00:42:37;100280.09;;;-1.37;100.00
51528;BME280;37612;51.768;21.590;2023-12-07T00:46:38;100283.36;;;-1.33;100.00
51528;BME280;37612;51.768;21.590;2023-12-07T00:50:39;100287.52;;;-1.33;100.00
51528;BME280;37612;51.768;21.590;2023-12-07T00:54:42;100287.48;;;-1.34;100.00
51528;BME280;37612;51.768;21.590;2023-12-07T00:58:43;100292.57;;;-1.34;100.00
51528;BME280;37612;51.768;21.590;2023-12-07T01:02:44;100291.61;;;-1.32;100.00
51528;BME280;37612;51.768;21.590;2023-12-07T01:06:46;100298.42;;;-1.30;100.00
51528;BME280;37612;51.768;21.590;2023-12-07T01:10:47;100293.13;;;-1.31;100.00
51528;BME280;37612;51.768;21.590;2023-12-07T01:14:49;100297.44;;;-1.30;100.00
51528;BME280;37612;51.768;21.590;2023-12-07T01:18:50;100292.42;;;-1.27;100.00
51528;BME280;37612;51.768;21.590;2023-12-07T01:22:55;100289.12;;;-1.25;100.00
51528;BME280;37612;51.768;21.590;2023-12-07T01:26:56;100289.90;;;-1.24;100.00
51528;BME280;37612;51.768;21.590;2023-12-07T01:30:57;100284.59;;;-1.21;100.00
51528;BME280;37612;51.768;21.590;2023-12-07T01:34:59;100286.33;;;-1.21;100.00
51528;BME280;37612;51.768;21.590;2023-12-07T01:39:00;100286.98;;;-1.20;100.00
51528;BME280;37612;51.768;21.590;2023-12-07T01:43:01;100282.16;;;-1.18;100.00
51528;BME280;37612;51.768;21.590;2023-12-07T01:47:03;100280.19;;;-1.17;100.00
51528;BME280;37612;51.768;21.590;2023-12-07T01:51:05;100280.81;;;-1.18;100.00
51528;BME280;37612;51.768;21.590;2023-12-07T01:55:07;100277.18;;;-1.17;100.00
51528;BME280;37612;51.768;21.590;2023-12-07T01:59:10;100276.59;;;-1.16;100.00
51528;BME280;37612;51.768;21.590;2023-12-07T02:03:13;100269.30;;;-1.18;100.00
51528;BME280;37612;51.768;21.590;2023-12-07T02:07:15;100273.09;;;-1.19;100.00
51528;BME280;37612;51.768;21.590;2023-12-07T02:11:16;100272.79;;;-1.17;100.00
51528;BME280;37612;51.768;21.590;2023-12-07T02:15:19;100272.98;;;-1.13;100.00
51528;BME280;37612;51.768;21.590;2023-12-07T02:23:41;100280.20;;;-1.14;100.00
51528;BME280;37612;51.768;21.590;2023-12-07T02:27:43;100280.41;;;-1.11;100.00
51528;BME280;37612;51.768;21.590;2023-12-07T02:31:49;100283.03;;;-1.11;100.00
51528;BME280;37612;51.768;21.590;2023-12-07T02:35:50;100283.95;;;-1.13;100.00
51528;BME280;37612;51.768;21.590;2023-12-07T02:39:52;100285.86;;;-1.11;100.00
51528;BME280;37612;51.768;21.590;2023-12-07T02:43:54;100292.78;;;-1.09;100.00
51528;BME280;37612;51.768;21.590;2023-12-07T02:47:57;100288.56;;;-1.11;100.00
51528;BME280;37612;51.768;21.590;2023-12-07T02:51:59;100292.17;;;-1.13;100.00
51528;BME280;37612;51.768;21.590;2023-12-07T02:56:00;100294.75;;;-1.11;100.00
51528;BME280;37612;51.768;21.590;2023-12-07T03:00:06;100299.31;;;-1.11;100.00
51528;BME280;37612;51.768;21.590;2023-12-07T03:04:08;100301.63;;;-1.12;100.00
51528;BME280;37612;51.768;21.590;2023-12-07T03:08:09;100302.98;;;-1.13;100.00
51528;BME280;37612;51.768;21.590;2023-12-07T03:12:10;100302.72;;;-1.12;100.00
51528;BME280;37612;51.768;21.590;2023-12-07T03:16:12;100301.37;;;-1.10;100.00
51528;BME280;37612;51.768;21.590;2023-12-07T03:20:13;100305.20;;;-1.08;100.00
51528;BME280;37612;51.768;21.590;2023-12-07T03:24:14;100310.96;;;-1.09;100.00
51528;BME280;37612;51.768;21.590;2023-12-07T03:28:16;100308.84;;;-1.11;100.00
51528;BME280;37612;51.768;21.590;2023-12-07T03:32:17;100308.84;;;-1.07;100.00
51528;BME280;37612;51.768;21.590;2023-12-07T03:36:19;100307.29;;;-1.08;100.00
51528;BME280;37612;51.768;21.590;2023-12-07T03:40:20;100304.88;;;-1.10;100.00
51528;BME280;37612;51.768;21.590;2023-12-07T03:44:21;100309.92;;;-1.08;100.00
51528;BME280;37612;51.768;21.590;2023-12-07T03:48:22;100307.67;;;-1.06;100.00
51528;BME280;37612;51.768;21.590;2023-12-07T03:52:24;100307.89;;;-1.08;100.00
51528;BME280;37612;51.768;21.590;2023-12-07T03:56:27;100304.33;;;-1.11;100.00
51528;BME280;37612;51.768;21.590;2023-12-07T04:00:31;100300.38;;;-1.08;100.00
51528;BME280;37612;51.768;21.590;2023-12-07T04:04:34;100304.70;;;-1.08;100.00
51528;BME280;37612;51.768;21.590;2023-12-07T04:08:35;100300.45;;;-1.09;100.00
51528;BME280;37612;51.768;21.590;2023-12-07T04:12:36;100299.09;;;-1.11;100.00
51528;BME280;37612;51.768;21.590;2023-12-07T04:16:39;100302.89;;;-1.11;100.00
51528;BME280;37612;51.768;21.590;2023-12-07T04:20:40;100307.00;;;-1.10;100.00
51528;BME280;37612;51.768;21.590;2023-12-07T04:24:41;100310.93;;;-1.12;100.00
51528;BME280;37612;51.768;21.590;2023-12-07T04:28:42;100311.52;;;-1.15;100.00
51528;BME280;37612;51.768;21.590;2023-12-07T04:32:44;100310.75;;;-1.14;100.00
51528;BME280;37612;51.768;21.590;2023-12-07T04:36:45;100311.69;;;-1.10;100.00
51528;BME280;37612;51.768;21.590;2023-12-07T04:40:46;100316.53;;;-1.08;100.00
51528;BME280;37612;51.768;21.590;2023-12-07T04:44:47;100315.62;;;-1.10;100.00
51528;BME280;37612;51.768;21.590;2023-12-07T04:48:49;100316.24;;;-1.13;100.00
51528;BME280;37612;51.768;21.590;2023-12-07T04:52:51;100308.81;;;-1.12;100.00
51528;BME280;37612;51.768;21.590;2023-12-07T04:56:52;100308.02;;;-1.10;100.00
51528;BME280;37612;51.768;21.590;2023-12-07T05:00:53;100311.71;;;-1.08;100.00
51528;BME280;37612;51.768;21.590;2023-12-07T05:04:56;100315.45;;;-1.12;100.00
51528;BME280;37612;51.768;21.590;2023-12-07T05:08:57;100318.48;;;-1.14;100.00
51528;BME280;37612;51.768;21.590;2023-12-07T05:12:59;100315.20;;;-1.13;100.00
51528;BME280;37612;51.768;21.590;2023-12-07T05:17:00;100319.17;;;-1.11;100.00
51528;BME280;37612;51.768;21.590;2023-12-07T05:21:02;100323.41;;;-1.13;100.00
51528;BME280;37612;51.768;21.590;2023-12-07T05:25:04;100322.60;;;-1.17;100.00
51528;BME280;37612;51.768;21.590;2023-12-07T05:29:05;100329.14;;;-1.16;100.00
51528;BME280;37612;51.768;21.590;2023-12-07T05:33:06;100329.11;;;-1.14;100.00
51528;BME280;37612;51.768;21.590;2023-12-07T05:37:09;100329.08;;;-1.17;100.00
51528;BME280;37612;51.768;21.590;2023-12-07T05:41:10;100328.66;;;-1.20;100.00
51528;BME280;37612;51.768;21.590;2023-12-07T05:45:13;100332.63;;;-1.19;100.00
51528;BME280;37612;51.768;21.590;2023-12-07T05:49:15;100339.27;;;-1.18;100.00
51528;BME280;37612;51.768;21.590;2023-12-07T05:53:16;100340.65;;;-1.19;100.00
51528;BME280;37612;51.768;21.590;2023-12-07T05:57:17;100343.98;;;-1.21;100.00
51528;BME280;37612;51.768;21.590;2023-12-07T06:01:19;100348.92;;;-1.18;100.00
51528;BME280;37612;51.768;21.590;2023-12-07T06:05:21;100354.30;;;-1.16;100.00
51528;BME280;37612;51.768;21.590;2023-12-07T06:09:22;100354.04;;;-1.18;100.00
51528;BME280;37612;51.768;21.590;2023-12-07T06:13:23;100357.50;;;-1.17;100.00
51528;BME280;37612;51.768;21.590;2023-12-07T06:17:25;100362.55;;;-1.13;100.00
51528;BME280;37612;51.768;21.590;2023-12-07T06:21:26;100368.84;;;-1.13;100.00
51528;BME280;37612;51.768;21.590;2023-12-07T06:25:32;100369.20;;;-1.15;100.00
51528;BME280;37612;51.768;21.590;2023-12-07T06:29:34;100371.65;;;-1.12;100.00
51528;BME280;37612;51.768;21.590;2023-12-07T06:33:35;100376.91;;;-1.09;100.00
51528;BME280;37612;51.768;21.590;2023-12-07T06:37:36;100380.02;;;-1.08;100.00
51528;BME280;37612;51.768;21.590;2023-12-07T06:41:37;100380.16;;;-1.10;100.00
51528;BME280;37612;51.768;21.590;2023-12-07T06:45:39;100378.88;;;-1.06;100.00
51528;BME280;37612;51.768;21.590;2023-12-07T06:49:40;100381.95;;;-1.02;100.00
51528;BME280;37612;51.768;21.590;2023-12-07T06:53:41;100388.17;;;-1.00;100.00
51528;BME280;37612;51.768;21.590;2023-12-07T06:57:42;100391.55;;;-1.02;100.00
51528;BME280;37612;51.768;21.590;2023-12-07T07:01:44;100397.12;;;-1.03;100.00
51528;BME280;37612;51.768;21.590;2023-12-07T07:05:45;100393.26;;;-1.00;100.00
51528;BME280;37612;51.768;21.590;2023-12-07T07:09:46;100393.42;;;-0.97;100.00
51528;BME280;37612;51.768;21.590;2023-12-07T07:13:47;100393.91;;;-0.96;100.00
51528;BME280;37612;51.768;21.590;2023-12-07T07:17:48;100399.56;;;-0.97;100.00
51528;BME280;37612;51.768;21.590;2023-12-07T07:21:50;100400.77;;;-0.97;100.00
51528;BME280;37612;51.768;21.590;2023-12-07T07:25:51;100399.34;;;-0.91;100.00
51528;BME280;37612;51.768;21.590;2023-12-07T07:29:52;100400.58;;;-0.88;100.00
51528;BME280;37612;51.768;21.590;2023-12-07T07:33:53;100405.16;;;-0.89;100.00
51528;BME280;37612;51.768;21.590;2023-12-07T07:37:55;100405.81;;;-0.87;100.00
51528;BME280;37612;51.768;21.590;2023-12-07T07:41:56;100409.67;;;-0.84;100.00
51528;BME280;37612;51.768;21.590;2023-12-07T07:45:57;100410.70;;;-0.82;100.00
51528;BME280;37612;51.768;21.590;2023-12-07T07:49:59;100410.56;;;-0.82;100.00
51528;BME280;37612;51.768;21.590;2023-12-07T07:54:00;100408.03;;;-0.80;100.00
51528;BME280;37612;51.768;21.590;2023-12-07T07:58:02;100408.66;;;-0.74;100.00
51528;BME280;37612;51.768;21.590;2023-12-07T08:02:04;100413.55;;;-0.73;100.00
51528;BME280;37612;51.768;21.590;2023-12-07T08:06:06;100416.73;;;-0.68;100.00
51528;BME280;37612;51.768;21.590;2023-12-07T08:10:08;100417.73;;;-0.58;100.00
51528;BME280;37612;51.768;21.590;2023-12-07T08:14:09;100420.73;;;-0.54;100.00
51528;BME280;37612;51.768;21.590;2023-12-07T08:18:11;100420.94;;;-0.52;100.00
51528;BME280;37612;51.768;21.590;2023-12-07T08:22:12;100424.95;;;-0.44;100.00
51528;BME280;37612;51.768;21.590;2023-12-07T08:26:14;100424.19;;;-0.40;100.00
51528;BME280;37612;51.768;21.590;2023-12-07T08:30:16;100427.29;;;-0.40;100.00
51528;BME280;37612;51.768;21.590;2023-12-07T08:34:20;100432.48;;;-0.33;100.00
51528;BME280;37612;51.768;21.590;2023-12-07T08:38:21;100435.59;;;-0.28;100.00
51528;BME280;37612;51.768;21.590;2023-12-07T08:42:24;100445.94;;;-0.27;100.00
51528;BME280;37612;51.768;21.590;2023-12-07T08:46:28;100449.48;;;-0.25;100.00
51528;BME280;37612;51.768;21.590;2023-12-07T08:50:29;100453.78;;;-0.23;100.00
51528;BME280;37612;51.768;21.590;2023-12-07T08:54:30;100454.69;;;-0.24;100.00
51528;BME280;37612;51.768;21.590;2023-12-07T08:58:32;100458.27;;;-0.21;100.00
51528;BME280;37612;51.768;21.590;2023-12-07T09:02:44;100459.09;;;-0.16;100.00
51528;BME280;37612;51.768;21.590;2023-12-07T09:06:45;100459.44;;;-0.09;100.00
51528;BME280;37612;51.768;21.590;2023-12-07T09:10:47;100455.17;;;-0.07;100.00
51528;BME280;37612;51.768;21.590;2023-12-07T09:14:53;100452.21;;;-0.08;100.00
51528;BME280;37612;51.768;21.590;2023-12-07T09:18:54;100452.29;;;-0.08;100.00
51528;BME280;37612;51.768;21.590;2023-12-07T09:22:56;100453.98;;;-0.08;100.00
51528;BME280;37612;51.768;21.590;2023-12-07T09:26:58;100454.80;;;-0.06;100.00
51528;BME280;37612;51.768;21.590;2023-12-07T09:31:00;100455.20;;;0.00;100.00
51528;BME280;37612;51.768;21.590;2023-12-07T09:35:03;100448.95;;;0.07;100.00
51528;BME280;37612;51.768;21.590;2023-12-07T09:39:05;100447.31;;;0.12;100.00
51528;BME280;37612;51.768;21.590;2023-12-07T09:43:06;100447.86;;;0.14;100.00
51528;BME280;37612;51.768;21.590;2023-12-07T09:47:08;100446.86;;;0.24;100.00
51528;BME280;37612;51.768;21.590;2023-12-07T09:51:14;100446.39;;;0.31;100.00
51528;BME280;37612;51.768;21.590;2023-12-07T09:55:17;100448.71;;;0.33;100.00
51528;BME280;37612;51.768;21.590;2023-12-07T09:59:19;100442.50;;;0.34;100.00
51528;BME280;37612;51.768;21.590;2023-12-07T10:03:21;100444.41;;;0.36;100.00
51528;BME280;37612;51.768;21.590;2023-12-07T10:07:38;100444.11;;;0.40;100.00
51528;BME280;37612;51.768;21.590;2023-12-07T10:11:41;100448.29;;;0.34;100.00
51528;BME280;37612;51.768;21.590;2023-12-07T10:15:42;100450.17;;;0.38;100.00
51528;BME280;37612;51.768;21.590;2023-12-07T10:19:43;100445.92;;;0.39;100.00
51528;BME280;37612;51.768;21.590;2023-12-07T10:23:45;100446.77;;;0.46;100.00
51528;BME280;37612;51.768;21.590;2023-12-07T10:27:48;100447.92;;;0.45;100.00
51528;BME280;37612;51.768;21.590;2023-12-07T10:31:50;100443.10;;;0.38;100.00
51528;BME280;37612;51.768;21.590;2023-12-07T10:35:51;100444.19;;;0.35;100.00
51528;BME280;37612;51.768;21.590;2023-12-07T10:39:52;100443.60;;;0.34;100.00
51528;BME280;37612;51.768;21.590;2023-12-07T10:43:59;100443.34;;;0.37;100.00
51528;BME280;37612;51.768;21.590;2023-12-07T10:48:05;100444.11;;;0.41;100.00
51528;BME280;37612;51.768;21.590;2023-12-07T10:52:12;100444.13;;;0.43;100.00
51528;BME280;37612;51.768;21.590;2023-12-07T10:56:24;100446.48;;;0.50;100.00
51528;BME280;37612;51.768;21.590;2023-12-07T11:00:27;100439.56;;;0.56;100.00
51528;BME280;37612;51.768;21.590;2023-12-07T11:04:30;100444.11;;;0.42;100.00
51528;BME280;37612;51.768;21.590;2023-12-07T11:08:39;100448.17;;;0.29;100.00
51528;BME280;37612;51.768;21.590;2023-12-07T11:12:49;100453.74;;;0.20;100.00
51528;BME280;37612;51.768;21.590;2023-12-07T11:16:52;100451.56;;;0.08;100.00
51528;BME280;37612;51.768;21.590;2023-12-07T11:20:56;100449.48;;;-0.03;100.00
51528;BME280;37612;51.768;21.590;2023-12-07T11:24:57;100447.27;;;-0.04;100.00
51528;BME280;37612;51.768;21.590;2023-12-07T11:29:02;100448.44;;;-0.04;100.00
51528;BME280;37612;51.768;21.590;2023-12-07T11:33:05;100447.15;;;-0.05;100.00
51528;BME280;37612;51.768;21.590;2023-12-07T11:37:07;100444.09;;;-0.08;100.00
51528;BME280;37612;51.768;21.590;2023-12-07T11:41:09;100442.52;;;-0.13;100.00
51528;BME280;37612;51.768;21.590;2023-12-07T11:45:11;100445.86;;;-0.18;100.00
51528;BME280;37612;51.768;21.590;2023-12-07T11:49:13;100449.20;;;-0.29;100.00
51528;BME280;37612;51.768;21.590;2023-12-07T11:53:20;100454.89;;;-0.40;100.00
51528;BME280;37612;51.768;21.590;2023-12-07T11:57:22;100453.50;;;-0.46;100.00
51528;BME280;37612;51.768;21.590;2023-12-07T12:01:28;100453.09;;;-0.42;100.00
51528;BME280;37612;51.768;21.590;2023-12-07T12:05:31;100448.90;;;-0.41;100.00
51528;BME280;37612;51.768;21.590;2023-12-07T12:09:32;100443.85;;;-0.39;100.00
51528;BME280;37612;51.768;21.590;2023-12-07T12:13:36;100444.27;;;-0.35;100.00
51528;BME280;37612;51.768;21.590;2023-12-07T12:17:37;100444.76;;;-0.35;100.00
51528;BME280;37612;51.768;21.590;2023-12-07T12:21:39;100447.81;;;-0.40;100.00
51528;BME280;37612;51.768;21.590;2023-12-07T12:25:40;100446.79;;;-0.49;100.00
51528;BME280;37612;51.768;21.590;2023-12-07T12:29:42;100445.80;;;-0.44;100.00
51528;BME280;37612;51.768;21.590;2023-12-07T12:33:43;100448.67;;;-0.42;100.00
51528;BME280;37612;51.768;21.590;2023-12-07T12:37:47;100451.39;;;-0.43;100.00
51528;BME280;37612;51.768;21.590;2023-12-07T12:41:54;100456.56;;;-0.49;100.00
51528;BME280;37612;51.768;21.590;2023-12-07T12:45:57;100456.06;;;-0.47;100.00
51528;BME280;37612;51.768;21.590;2023-12-07T12:49:58;100463.05;;;-0.49;100.00
51528;BME280;37612;51.768;21.590;2023-12-07T12:54:00;100462.23;;;-0.51;100.00
51528;BME280;37612;51.768;21.590;2023-12-07T12:58:02;100459.22;;;-0.54;100.00
51528;BME280;37612;51.768;21.590;2023-12-07T13:02:13;100462.63;;;-0.51;100.00
51528;BME280;37612;51.768;21.590;2023-12-07T13:06:15;100463.73;;;-0.50;100.00
51528;BME280;37612;51.768;21.590;2023-12-07T13:10:16;100468.73;;;-0.54;100.00
51528;BME280;37612;51.768;21.590;2023-12-07T13:14:19;100467.58;;;-0.60;100.00
51528;BME280;37612;51.768;21.590;2023-12-07T13:18:20;100460.38;;;-0.60;100.00
51528;BME280;37612;51.768;21.590;2023-12-07T13:22:21;100459.40;;;-0.62;100.00
51528;BME280;37612;51.768;21.590;2023-12-07T13:26:22;100462.49;;;-0.69;100.00
51528;BME280;37612;51.768;21.590;2023-12-07T13:30:24;100466.20;;;-0.73;100.00
51528;BME280;37612;51.768;21.590;2023-12-07T13:34:33;100467.66;;;-0.75;100.00
51528;BME280;37612;51.768;21.590;2023-12-07T13:38:35;100472.38;;;-0.77;100.00
51528;BME280;37612;51.768;21.590;2023-12-07T13:42:36;100482.05;;;-0.84;100.00
51528;BME280;37612;51.768;21.590;2023-12-07T13:46:38;100486.08;;;-0.91;100.00
51528;BME280;37612;51.768;21.590;2023-12-07T13:50:39;100489.95;;;-0.96;100.00
51528;BME280;37612;51.768;21.590;2023-12-07T13:54:40;100490.55;;;-0.95;100.00
51528;BME280;37612;51.768;21.590;2023-12-07T13:58:42;100489.27;;;-0.96;100.00
51528;BME280;37612;51.768;21.590;2023-12-07T14:02:43;100489.36;;;-1.02;100.00
51528;BME280;37612;51.768;21.590;2023-12-07T14:06:45;100493.85;;;-1.08;100.00
51528;BME280;37612;51.768;21.590;2023-12-07T14:10:46;100497.30;;;-1.06;100.00
51528;BME280;37612;51.768;21.590;2023-12-07T14:14:48;100499.80;;;-1.08;100.00
51528;BME280;37612;51.768;21.590;2023-12-07T14:18:49;100504.65;;;-1.12;100.00
51528;BME280;37612;51.768;21.590;2023-12-07T14:22:50;100515.34;;;-1.20;100.00
51528;BME280;37612;51.768;21.590;2023-12-07T14:26:57;100518.74;;;-1.19;100.00
51528;BME280;37612;51.768;21.590;2023-12-07T14:30:59;100518.91;;;-1.19;100.00
51528;BME280;37612;51.768;21.590;2023-12-07T14:35:00;100518.38;;;-1.22;100.00
51528;BME280;37612;51.768;21.590;2023-12-07T14:39:02;100519.34;;;-1.28;100.00
51528;BME280;37612;51.768;21.590;2023-12-07T14:43:15;100516.92;;;-1.33;100.00
51528;BME280;37612;51.768;21.590;2023-12-07T14:47:16;100520.20;;;-1.38;100.00
51528;BME280;37612;51.768;21.590;2023-12-07T14:51:21;100522.25;;;-1.43;100.00
51528;BME280;37612;51.768;21.590;2023-12-07T14:55:22;100521.83;;;-1.45;100.00
51528;BME280;37612;51.768;21.590;2023-12-07T14:59:23;100520.48;;;-1.46;100.00
51528;BME280;37612;51.768;21.590;2023-12-07T15:03:28;100525.23;;;-1.46;100.00
51528;BME280;37612;51.768;21.590;2023-12-07T15:07:29;100531.92;;;-1.50;100.00
51528;BME280;37612;51.768;21.590;2023-12-07T15:11:31;100534.42;;;-1.55;100.00
51528;BME280;37612;51.768;21.590;2023-12-07T15:15:32;100531.12;;;-1.55;100.00
51528;BME280;37612;51.768;21.590;2023-12-07T15:19:34;100535.53;;;-1.56;100.00
51528;BME280;37612;51.768;21.590;2023-12-07T15:23:35;100534.90;;;-1.58;100.00
51528;BME280;37612;51.768;21.590;2023-12-07T15:27:38;100532.11;;;-1.63;100.00
51528;BME280;37612;51.768;21.590;2023-12-07T15:31:40;100537.85;;;-1.65;100.00
51528;BME280;37612;51.768;21.590;2023-12-07T15:35:43;100538.77;;;-1.64;100.00
51528;BME280;37612;51.768;21.590;2023-12-07T15:39:51;100540.46;;;-1.67;100.00
51528;BME280;37612;51.768;21.590;2023-12-07T15:43:52;100538.86;;;-1.75;100.00
51528;BME280;37612;51.768;21.590;2023-12-07T15:47:53;100542.66;;;-1.76;100.00
51528;BME280;37612;51.768;21.590;2023-12-07T15:51:55;100541.25;;;-1.74;100.00
51528;BME280;37612;51.768;21.590;2023-12-07T15:55:57;100541.30;;;-1.76;100.00
51528;BME280;37612;51.768;21.590;2023-12-07T15:59:58;100543.60;;;-1.82;100.00
51528;BME280;37612;51.768;21.590;2023-12-07T16:03:59;100544.16;;;-1.82;100.00
51528;BME280;37612;51.768;21.590;2023-12-07T16:08:00;100548.66;;;-1.78;100.00
51528;BME280;37612;51.768;21.590;2023-12-07T16:12:02;100550.23;;;-1.80;100.00
51528;BME280;37612;51.768;21.590;2023-12-07T16:16:05;100551.86;;;-1.85;100.00
51528;BME280;37612;51.768;21.590;2023-12-07T16:20:07;100556.70;;;-1.87;100.00
51528;BME280;37612;51.768;21.590;2023-12-07T16:24:11;100563.33;;;-1.87;100.00
51528;BME280;37612;51.768;21.590;2023-12-07T16:28:12;100563.14;;;-1.86;100.00
51528;BME280;37612;51.768;21.590;2023-12-07T16:32:13;100564.01;;;-1.91;100.00
51528;BME280;37612;51.768;21.590;2023-12-07T16:36:18;100569.92;;;-1.95;100.00
51528;BME280;37612;51.768;21.590;2023-12-07T16:40:20;100570.55;;;-1.97;100.00
51528;BME280;37612;51.768;21.590;2023-12-07T16:44:21;100575.79;;;-1.95;100.00
51528;BME280;37612;51.768;21.590;2023-12-07T16:48:42;100576.73;;;-1.96;100.00
51528;BME280;37612;51.768;21.590;2023-12-07T16:52:45;100575.02;;;-1.99;100.00
51528;BME280;37612;51.768;21.590;2023-12-07T16:56:47;100577.03;;;-2.00;100.00
51528;BME280;37612;51.768;21.590;2023-12-07T17:00:49;100582.95;;;-2.00;100.00
51528;BME280;37612;51.768;21.590;2023-12-07T17:04:52;100584.21;;;-2.02;100.00
51528;BME280;37612;51.768;21.590;2023-12-07T17:08:54;100582.98;;;-2.04;100.00
51528;BME280;37612;51.768;21.590;2023-12-07T17:12:57;100581.39;;;-2.04;100.00
51528;BME280;37612;51.768;21.590;2023-12-07T17:16:58;100583.65;;;-2.04;100.00
51528;BME280;37612;51.768;21.590;2023-12-07T17:21:01;100578.40;;;-2.07;100.00
51528;BME280;37612;51.768;21.590;2023-12-07T17:25:06;100577.59;;;-2.08;100.00
51528;BME280;37612;51.768;21.590;2023-12-07T17:29:09;100573.54;;;-2.05;100.00
51528;BME280;37612;51.768;21.590;2023-12-07T17:33:11;100578.08;;;-2.05;100.00
51528;BME280;37612;51.768;21.590;2023-12-07T17:37:12;100584.13;;;-2.10;100.00
51528;BME280;37612;51.768;21.590;2023-12-07T17:41:13;100593.80;;;-2.12;100.00
51528;BME280;37612;51.768;21.590;2023-12-07T17:45:14;100598.60;;;-2.12;100.00
51528;BME280;37612;51.768;21.590;2023-12-07T17:49:16;100595.99;;;-2.10;100.00
51528;BME280;37612;51.768;21.590;2023-12-07T17:53:17;100603.48;;;-2.12;100.00
51528;BME280;37612;51.768;21.590;2023-12-07T17:57:18;100602.39;;;-2.13;100.00
51528;BME280;37612;51.768;21.590;2023-12-07T18:01:20;100603.66;;;-2.17;100.00
51528;BME280;37612;51.768;21.590;2023-12-07T18:05:22;100606.85;;;-2.14;100.00
51528;BME280;37612;51.768;21.590;2023-12-07T18:09:23;100608.46;;;-2.11;100.00
51528;BME280;37612;51.768;21.590;2023-12-07T18:13:24;100605.27;;;-2.12;100.00
51528;BME280;37612;51.768;21.590;2023-12-07T18:17:25;100602.73;;;-2.15;100.00
51528;BME280;37612;51.768;21.590;2023-12-07T18:21:26;100601.54;;;-2.17;100.00
51528;BME280;37612;51.768;21.590;2023-12-07T18:25:27;100601.00;;;-2.20;100.00
51528;BME280;37612;51.768;21.590;2023-12-07T18:29:29;100604.55;;;-2.22;100.00
51528;BME280;37612;51.768;21.590;2023-12-07T18:33:30;100605.77;;;-2.28;100.00
51528;BME280;37612;51.768;21.590;2023-12-07T18:37:31;100601.67;;;-2.29;100.00
51528;BME280;37612;51.768;21.590;2023-12-07T18:41:32;100598.63;;;-2.28;100.00
51528;BME280;37612;51.768;21.590;2023-12-07T18:45:33;100601.58;;;-2.30;100.00
51528;BME280;37612;51.768;21.590;2023-12-07T18:49:35;100603.98;;;-2.35;100.00
51528;BME280;37612;51.768;21.590;2023-12-07T18:53:36;100602.25;;;-2.31;100.00
51528;BME280;37612;51.768;21.590;2023-12-07T18:57:57;100605.88;;;-2.29;100.00
51528;BME280;37612;51.768;21.590;2023-12-07T19:02:40;100606.45;;;-2.33;100.00
51528;BME280;37612;51.768;21.590;2023-12-07T19:06:41;100608.50;;;-2.36;100.00
51528;BME280;37612;51.768;21.590;2023-12-07T19:10:42;100609.05;;;-2.40;100.00
51528;BME280;37612;51.768;21.590;2023-12-07T19:14:44;100614.83;;;-2.49;100.00
51528;BME280;37612;51.768;21.590;2023-12-07T19:18:45;100616.77;;;-2.58;100.00
51528;BME280;37612;51.768;21.590;2023-12-07T19:22:47;100618.72;;;-2.62;100.00
51528;BME280;37612;51.768;21.590;2023-12-07T19:26:49;100627.90;;;-2.65;100.00
51528;BME280;37612;51.768;21.590;2023-12-07T19:30:51;100630.83;;;-2.70;100.00
51528;BME280;37612;51.768;21.590;2023-12-07T19:34:52;100636.27;;;-2.76;100.00
51528;BME280;37612;51.768;21.590;2023-12-07T19:38:53;100637.80;;;-2.76;100.00
51528;BME280;37612;51.768;21.590;2023-12-07T19:42:54;100640.27;;;-2.70;100.00
51528;BME280;37612;51.768;21.590;2023-12-07T19:46:56;100640.21;;;-2.75;100.00
51528;BME280;37612;51.768;21.590;2023-12-07T19:50:57;100642.73;;;-2.83;100.00
51528;BME280;37612;51.768;21.590;2023-12-07T19:54:58;100647.13;;;-2.84;100.00
51528;BME280;37612;51.768;21.590;2023-12-07T19:59:06;100647.00;;;-2.83;100.00
51528;BME280;37612;51.768;21.590;2023-12-07T20:03:08;100645.89;;;-2.86;100.00
51528;BME280;37612;51.768;21.590;2023-12-07T20:07:10;100648.50;;;-2.89;100.00
51528;BME280;37612;51.768;21.590;2023-12-07T20:11:19;100648.58;;;-2.90;100.00
51528;BME280;37612;51.768;21.590;2023-12-07T20:15:21;100646.61;;;-2.89;100.00
51528;BME280;37612;51.768;21.590;2023-12-07T20:19:22;100648.08;;;-2.94;100.00
51528;BME280;37612;51.768;21.590;2023-12-07T20:23:24;100636.50;;;-2.97;100.00
51528;BME280;37612;51.768;21.590;2023-12-07T20:27:26;100639.41;;;-2.98;100.00
51528;BME280;37612;51.768;21.590;2023-12-07T20:31:27;100644.90;;;-2.97;100.00
51528;BME280;37612;51.768;21.590;2023-12-07T20:35:28;100647.23;;;-2.99;100.00
51528;BME280;37612;51.768;21.590;2023-12-07T20:39:31;100649.02;;;-3.02;100.00